sensor_id;sensor_type;location;lat;lon;timestamp;P1;durP1;ratioP1;P2;durP2;ratioP2
9698;SDS011;10089;47.876;8.346;2023-06-22T00:01:27;10.20;;;5.32;;
9698;SDS011;10089;47.876;8.346;2023-06-22T00:03:53;8.93;;;5.45;;
9698;SDS011;10089;47.876;8.346;2023-06-22T00:06:19;12.82;;;5.55;;
9698;SDS011;10089;47.876;8.346;2023-06-22T00:08:44;15.05;;;5.05;;
9698;SDS011;10089;47.876;8.346;2023-06-22T00:11:10;12.02;;;5.80;;
9698;SDS011;10089;47.876;8.346;2023-06-22T00:13:37;13.45;;;6.07;;
9698;SDS011;10089;47.876;8.346;2023-06-22T00:16:03;8.57;;;5.60;;
9698;SDS011;10089;47.876;8.346;2023-06-22T00:18:29;13.02;;;5.78;;
9698;SDS011;10089;47.876;8.346;2023-06-22T00:20:55;16.05;;;5.40;;
9698;SDS011;10089;47.876;8.346;2023-06-22T00:23:24;13.00;;;5.45;;
9698;SDS011;10089;47.876;8.346;2023-06-22T00:25:50;8.05;;;5.30;;
9698;SDS011;10089;47.876;8.346;2023-06-22T00:28:16;11.25;;;5.80;;
9698;SDS011;10089;47.876;8.346;2023-06-22T00:30:42;10.45;;;5.18;;
9698;SDS011;10089;47.876;8.346;2023-06-22T00:33:08;7.97;;;4.90;;
9698;SDS011;10089;47.876;8.346;2023-06-22T00:35:33;11.35;;;5.20;;
9698;SDS011;10089;47.876;8.346;2023-06-22T00:37:59;11.93;;;5.75;;
9698;SDS011;10089;47.876;8.346;2023-06-22T00:40:26;9.90;;;5.70;;
9698;SDS011;10089;47.876;8.346;2023-06-22T00:42:53;7.25;;;5.10;;
9698;SDS011;10089;47.876;8.346;2023-06-22T00:45:19;11.27;;;5.00;;
9698;SDS011;10089;47.876;8.346;2023-06-22T00:47:47;21.88;;;6.60;;
9698;SDS011;10089;47.876;8.346;2023-06-22T00:50:21;9.68;;;5.97;;
9698;SDS011;10089;47.876;8.346;2023-06-22T00:52:53;13.20;;;5.35;;
9698;SDS011;10089;47.876;8.346;2023-06-22T00:55:24;13.38;;;6.07;;
9698;SDS011;10089;47.876;8.346;2023-06-22T00:57:51;11.45;;;5.85;;
9698;SDS011;10089;47.876;8.346;2023-06-22T01:00:21;12.00;;;5.78;;
9698;SDS011;10089;47.876;8.346;2023-06-22T01:02:54;14.48;;;6.13;;
9698;SDS011;10089;47.876;8.346;2023-06-22T01:05:20;8.63;;;5.47;;
9698;SDS011;10089;47.876;8.346;2023-06-22T01:13:06;10.63;;;5.20;;
9698;SDS011;10089;47.876;8.346;2023-06-22T01:15:43;14.35;;;6.05;;
9698;SDS011;10089;47.876;8.346;2023-06-22T01:18:14;11.63;;;5.60;;
9698;SDS011;10089;47.876;8.346;2023-06-22T01:20:42;9.25;;;5.47;;
9698;SDS011;10089;47.876;8.346;2023-06-22T01:23:17;10.10;;;5.75;;
9698;SDS011;10089;47.876;8.346;2023-06-22T01:26:54;11.93;;;5.60;;
9698;SDS011;10089;47.876;8.346;2023-06-22T01:28:59;12.48;;;6.05;;
9698;SDS011;10089;47.876;8.346;2023-06-22T01:31:28;11.18;;;6.30;;
9698;SDS011;10089;47.876;8.346;2023-06-22T01:34:03;14.63;;;5.93;;
9698;SDS011;10089;47.876;8.346;2023-06-22T01:36:31;15.27;;;6.78;;
9698;SDS011;10089;47.876;8.346;2023-06-22T01:38:58;10.25;;;5.60;;
9698;SDS011;10089;47.876;8.346;2023-06-22T01:41:25;12.43;;;6.30;;
9698;SDS011;10089;47.876;8.346;2023-06-22T01:43:52;7.57;;;5.45;;
9698;SDS011;10089;47.876;8.346;2023-06-22T01:46:19;8.93;;;5.50;;
9698;SDS011;10089;47.876;8.346;2023-06-22T01:48:46;10.02;;;5.28;;
9698;SDS011;10089;47.876;8.346;2023-06-22T01:51:12;12.00;;;6.03;;
9698;SDS011;10089;47.876;8.346;2023-06-22T01:53:39;8.50;;;5.47;;
9698;SDS011;10089;47.876;8.346;2023-06-22T01:56:05;12.93;;;5.90;;
9698;SDS011;10089;47.876;8.346;2023-06-22T01:58:31;9.00;;;5.47;;
9698;SDS011;10089;47.876;8.346;2023-06-22T02:01:06;7.90;;;5.28;;
9698;SDS011;10089;47.876;8.346;2023-06-22T02:03:41;10.95;;;5.13;;
9698;SDS011;10089;47.876;8.346;2023-06-22T02:06:20;11.07;;;5.05;;
9698;SDS011;10089;47.876;8.346;2023-06-22T02:08:51;11.35;;;5.75;;
9698;SDS011;10089;47.876;8.346;2023-06-22T02:11:22;11.55;;;5.43;;
9698;SDS011;10089;47.876;8.346;2023-06-22T02:13:48;11.25;;;5.53;;
9698;SDS011;10089;47.876;8.346;2023-06-22T02:16:15;11.35;;;5.80;;
9698;SDS011;10089;47.876;8.346;2023-06-22T02:18:46;8.68;;;5.57;;
9698;SDS011;10089;47.876;8.346;2023-06-22T02:21:15;9.88;;;5.55;;
9698;SDS011;10089;47.876;8.346;2023-06-22T02:23:42;9.18;;;5.50;;
9698;SDS011;10089;47.876;8.346;2023-06-22T02:26:07;12.90;;;6.43;;
9698;SDS011;10089;47.876;8.346;2023-06-22T02:28:33;10.45;;;5.63;;
9698;SDS011;10089;47.876;8.346;2023-06-22T02:30:59;9.30;;;5.25;;
9698;SDS011;10089;47.876;8.346;2023-06-22T02:33:25;10.10;;;5.55;;
9698;SDS011;10089;47.876;8.346;2023-06-22T02:35:50;13.27;;;6.13;;
9698;SDS011;10089;47.876;8.346;2023-06-22T02:38:16;13.10;;;6.32;;
9698;SDS011;10089;47.876;8.346;2023-06-22T02:40:42;9.63;;;5.30;;
9698;SDS011;10089;47.876;8.346;2023-06-22T02:43:08;9.32;;;6.22;;
9698;SDS011;10089;47.876;8.346;2023-06-22T02:45:34;15.15;;;6.38;;
9698;SDS011;10089;47.876;8.346;2023-06-22T02:47:59;11.38;;;5.82;;
9698;SDS011;10089;47.876;8.346;2023-06-22T02:50:25;10.27;;;5.07;;
9698;SDS011;10089;47.876;8.346;2023-06-22T02:52:54;12.65;;;6.22;;
9698;SDS011;10089;47.876;8.346;2023-06-22T02:55:20;12.52;;;5.82;;
9698;SDS011;10089;47.876;8.346;2023-06-22T02:57:46;11.70;;;6.53;;
9698;SDS011;10089;47.876;8.346;2023-06-22T03:00:13;9.40;;;5.47;;
9698;SDS011;10089;47.876;8.346;2023-06-22T03:02:46;17.05;;;6.20;;
9698;SDS011;10089;47.876;8.346;2023-06-22T03:05:16;17.17;;;6.93;;
9698;SDS011;10089;47.876;8.346;2023-06-22T03:07:43;13.50;;;6.75;;
9698;SDS011;10089;47.876;8.346;2023-06-22T03:10:10;17.15;;;6.28;;
9698;SDS011;10089;47.876;8.346;2023-06-22T03:12:40;13.82;;;5.88;;
9698;SDS011;10089;47.876;8.346;2023-06-22T03:15:09;13.90;;;5.60;;
9698;SDS011;10089;47.876;8.346;2023-06-22T03:17:37;10.85;;;6.10;;
9698;SDS011;10089;47.876;8.346;2023-06-22T03:20:05;11.75;;;6.65;;
9698;SDS011;10089;47.876;8.346;2023-06-22T03:22:36;12.82;;;6.50;;
9698;SDS011;10089;47.876;8.346;2023-06-22T03:25:06;14.75;;;6.68;;
9698;SDS011;10089;47.876;8.346;2023-06-22T03:27:38;13.13;;;6.68;;
9698;SDS011;10089;47.876;8.346;2023-06-22T03:30:04;10.18;;;6.82;;
9698;SDS011;10089;47.876;8.346;2023-06-22T03:32:32;12.23;;;6.35;;
9698;SDS011;10089;47.876;8.346;2023-06-22T03:34:57;10.55;;;6.35;;
9698;SDS011;10089;47.876;8.346;2023-06-22T03:37:26;11.15;;;6.32;;
9698;SDS011;10089;47.876;8.346;2023-06-22T03:39:55;10.52;;;6.38;;
9698;SDS011;10089;47.876;8.346;2023-06-22T03:42:21;9.23;;;6.50;;
9698;SDS011;10089;47.876;8.346;2023-06-22T03:44:47;8.65;;;5.82;;
9698;SDS011;10089;47.876;8.346;2023-06-22T03:47:15;13.82;;;7.20;;
9698;SDS011;10089;47.876;8.346;2023-06-22T03:49:42;10.80;;;5.97;;
9698;SDS011;10089;47.876;8.346;2023-06-22T03:52:10;8.45;;;5.63;;
9698;SDS011;10089;47.876;8.346;2023-06-22T03:54:36;9.00;;;6.28;;
9698;SDS011;10089;47.876;8.346;2023-06-22T03:57:07;15.07;;;7.13;;
9698;SDS011;10089;47.876;8.346;2023-06-22T03:59:36;14.50;;;7.00;;
9698;SDS011;10089;47.876;8.346;2023-06-22T04:02:05;11.93;;;6.18;;
9698;SDS011;10089;47.876;8.346;2023-06-22T04:04:34;14.25;;;7.07;;
9698;SDS011;10089;47.876;8.346;2023-06-22T04:07:00;12.82;;;6.53;;
9698;SDS011;10089;47.876;8.346;2023-06-22T04:09:29;11.10;;;6.47;;
9698;SDS011;10089;47.876;8.346;2023-06-22T04:11:55;10.90;;;6.45;;
9698;SDS011;10089;47.876;8.346;2023-06-22T04:14:21;14.07;;;6.97;;
9698;SDS011;10089;47.876;8.346;2023-06-22T04:16:47;10.27;;;6.47;;
9698;SDS011;10089;47.876;8.346;2023-06-22T04:19:15;14.00;;;7.13;;
9698;SDS011;10089;47.876;8.346;2023-06-22T04:21:44;14.70;;;6.78;;
9698;SDS011;10089;47.876;8.346;2023-06-22T04:24:12;9.90;;;7.15;;
9698;SDS011;10089;47.876;8.346;2023-06-22T04:26:38;16.50;;;7.25;;
9698;SDS011;10089;47.876;8.346;2023-06-22T04:39:33;11.05;;;8.18;;
9698;SDS011;10089;47.876;8.346;2023-06-22T04:41:59;15.98;;;7.88;;
9698;SDS011;10089;47.876;8.346;2023-06-22T04:44:31;13.48;;;8.13;;
9698;SDS011;10089;47.876;8.346;2023-06-22T04:46:57;14.45;;;7.97;;
9698;SDS011;10089;47.876;8.346;2023-06-22T04:49:29;17.05;;;7.80;;
9698;SDS011;10089;47.876;8.346;2023-06-22T04:52:09;9.88;;;7.57;;
9698;SDS011;10089;47.876;8.346;2023-06-22T04:54:36;10.63;;;7.47;;
9698;SDS011;10089;47.876;8.346;2023-06-22T04:57:18;12.75;;;8.10;;
9698;SDS011;10089;47.876;8.346;2023-06-22T04:59:49;13.13;;;7.75;;
9698;SDS011;10089;47.876;8.346;2023-06-22T05:02:15;10.23;;;6.95;;
9698;SDS011;10089;47.876;8.346;2023-06-22T05:04:41;13.30;;;8.18;;
9698;SDS011;10089;47.876;8.346;2023-06-22T05:07:06;15.02;;;7.55;;
9698;SDS011;10089;47.876;8.346;2023-06-22T05:09:32;11.52;;;7.75;;
9698;SDS011;10089;47.876;8.346;2023-06-22T05:11:58;12.63;;;7.22;;
9698;SDS011;10089;47.876;8.346;2023-06-22T05:14:48;9.55;;;6.57;;
9698;SDS011;10089;47.876;8.346;2023-06-22T05:17:12;13.02;;;7.15;;
9698;SDS011;10089;47.876;8.346;2023-06-22T05:19:39;12.13;;;7.97;;
9698;SDS011;10089;47.876;8.346;2023-06-22T05:22:10;11.68;;;7.47;;
9698;SDS011;10089;47.876;8.346;2023-06-22T05:24:37;9.95;;;7.18;;
9698;SDS011;10089;47.876;8.346;2023-06-22T05:27:03;16.02;;;8.63;;
9698;SDS011;10089;47.876;8.346;2023-06-22T05:29:29;15.15;;;6.95;;
9698;SDS011;10089;47.876;8.346;2023-06-22T05:31:54;12.65;;;7.28;;
9698;SDS011;10089;47.876;8.346;2023-06-22T05:34:20;11.60;;;7.00;;
9698;SDS011;10089;47.876;8.346;2023-06-22T05:36:46;11.23;;;7.65;;
9698;SDS011;10089;47.876;8.346;2023-06-22T05:39:14;12.88;;;7.10;;
9698;SDS011;10089;47.876;8.346;2023-06-22T05:41:40;15.20;;;6.90;;
9698;SDS011;10089;47.876;8.346;2023-06-22T05:44:06;11.20;;;7.10;;
9698;SDS011;10089;47.876;8.346;2023-06-22T05:46:32;14.88;;;7.22;;
9698;SDS011;10089;47.876;8.346;2023-06-22T05:48:58;12.85;;;7.15;;
9698;SDS011;10089;47.876;8.346;2023-06-22T05:51:23;14.20;;;7.28;;
9698;SDS011;10089;47.876;8.346;2023-06-22T05:53:49;10.15;;;5.93;;
9698;SDS011;10089;47.876;8.346;2023-06-22T05:56:15;13.93;;;6.78;;
9698;SDS011;10089;47.876;8.346;2023-06-22T05:58:41;14.02;;;6.65;;
9698;SDS011;10089;47.876;8.346;2023-06-22T06:01:07;9.45;;;7.05;;
9698;SDS011;10089;47.876;8.346;2023-06-22T06:03:32;10.70;;;6.20;;
9698;SDS011;10089;47.876;8.346;2023-06-22T06:05:58;12.38;;;6.25;;
9698;SDS011;10089;47.876;8.346;2023-06-22T06:08:24;11.32;;;6.00;;
9698;SDS011;10089;47.876;8.346;2023-06-22T06:10:50;9.43;;;6.05;;
9698;SDS011;10089;47.876;8.346;2023-06-22T06:13:18;12.85;;;6.28;;
9698;SDS011;10089;47.876;8.346;2023-06-22T06:15:43;12.73;;;6.32;;
9698;SDS011;10089;47.876;8.346;2023-06-22T06:18:09;9.30;;;6.38;;
9698;SDS011;10089;47.876;8.346;2023-06-22T06:20:35;12.07;;;6.82;;
9698;SDS011;10089;47.876;8.346;2023-06-22T06:23:00;12.30;;;6.22;;
9698;SDS011;10089;47.876;8.346;2023-06-22T06:25:26;12.45;;;6.40;;
9698;SDS011;10089;47.876;8.346;2023-06-22T06:27:53;13.00;;;6.40;;
9698;SDS011;10089;47.876;8.346;2023-06-22T06:30:22;9.77;;;5.60;;
9698;SDS011;10089;47.876;8.346;2023-06-22T06:32:49;9.07;;;6.25;;
9698;SDS011;10089;47.876;8.346;2023-06-22T06:35:15;8.50;;;5.40;;
9698;SDS011;10089;47.876;8.346;2023-06-22T06:37:42;9.15;;;5.95;;
9698;SDS011;10089;47.876;8.346;2023-06-22T06:40:09;17.13;;;6.88;;
9698;SDS011;10089;47.876;8.346;2023-06-22T06:42:55;12.68;;;6.35;;
9698;SDS011;10089;47.876;8.346;2023-06-22T06:45:21;12.27;;;6.05;;
9698;SDS011;10089;47.876;8.346;2023-06-22T06:47:49;10.27;;;5.85;;
9698;SDS011;10089;47.876;8.346;2023-06-22T06:50:17;9.27;;;6.47;;
9698;SDS011;10089;47.876;8.346;2023-06-22T06:52:44;8.55;;;6.50;;
9698;SDS011;10089;47.876;8.346;2023-06-22T06:55:10;12.13;;;6.68;;
9698;SDS011;10089;47.876;8.346;2023-06-22T06:57:37;9.93;;;5.95;;
9698;SDS011;10089;47.876;8.346;2023-06-22T07:00:03;12.00;;;6.45;;
9698;SDS011;10089;47.876;8.346;2023-06-22T07:02:34;8.60;;;6.93;;
9698;SDS011;10089;47.876;8.346;2023-06-22T07:05:00;15.55;;;7.03;;
9698;SDS011;10089;47.876;8.346;2023-06-22T07:07:28;14.30;;;7.15;;
9698;SDS011;10089;47.876;8.346;2023-06-22T07:09:54;12.15;;;6.78;;
9698;SDS011;10089;47.876;8.346;2023-06-22T07:12:20;11.13;;;6.55;;
9698;SDS011;10089;47.876;8.346;2023-06-22T07:14:46;11.20;;;6.78;;
9698;SDS011;10089;47.876;8.346;2023-06-22T07:17:12;10.02;;;6.45;;
9698;SDS011;10089;47.876;8.346;2023-06-22T07:19:37;12.55;;;6.47;;
9698;SDS011;10089;47.876;8.346;2023-06-22T07:22:06;13.68;;;6.13;;
9698;SDS011;10089;47.876;8.346;2023-06-22T07:24:32;10.13;;;6.43;;
9698;SDS011;10089;47.876;8.346;2023-06-22T07:27:00;14.07;;;6.00;;
9698;SDS011;10089;47.876;8.346;2023-06-22T07:29:27;10.13;;;6.05;;
9698;SDS011;10089;47.876;8.346;2023-06-22T07:31:53;8.60;;;5.30;;
9698;SDS011;10089;47.876;8.346;2023-06-22T07:34:21;12.02;;;5.95;;
9698;SDS011;10089;47.876;8.346;2023-06-22T07:36:47;10.77;;;5.97;;
9698;SDS011;10089;47.876;8.346;2023-06-22T07:39:12;12.75;;;5.82;;
9698;SDS011;10089;47.876;8.346;2023-06-22T07:41:39;11.65;;;5.43;;
9698;SDS011;10089;47.876;8.346;2023-06-22T07:44:08;11.77;;;5.32;;
9698;SDS011;10089;47.876;8.346;2023-06-22T07:46:33;13.68;;;5.13;;
9698;SDS011;10089;47.876;8.346;2023-06-22T07:48:59;10.68;;;5.15;;
9698;SDS011;10089;47.876;8.346;2023-06-22T07:51:26;9.35;;;4.72;;
9698;SDS011;10089;47.876;8.346;2023-06-22T07:53:52;9.68;;;5.13;;
9698;SDS011;10089;47.876;8.346;2023-06-22T07:56:17;11.80;;;4.80;;
9698;SDS011;10089;47.876;8.346;2023-06-22T07:58:45;9.40;;;5.13;;
9698;SDS011;10089;47.876;8.346;2023-06-22T08:01:11;8.65;;;4.70;;
9698;SDS011;10089;47.876;8.346;2023-06-22T08:03:37;12.02;;;5.20;;
9698;SDS011;10089;47.876;8.346;2023-06-22T08:06:04;8.88;;;5.20;;
9698;SDS011;10089;47.876;8.346;2023-06-22T08:08:31;8.63;;;4.70;;
9698;SDS011;10089;47.876;8.346;2023-06-22T08:10:56;16.70;;;5.43;;
9698;SDS011;10089;47.876;8.346;2023-06-22T08:13:22;10.70;;;4.85;;
9698;SDS011;10089;47.876;8.346;2023-06-22T08:15:51;14.95;;;5.05;;
9698;SDS011;10089;47.876;8.346;2023-06-22T08:18:20;13.23;;;5.22;;
9698;SDS011;10089;47.876;8.346;2023-06-22T08:20:45;9.35;;;5.10;;
9698;SDS011;10089;47.876;8.346;2023-06-22T08:23:11;9.65;;;4.97;;
9698;SDS011;10089;47.876;8.346;2023-06-22T08:25:37;10.20;;;4.97;;
9698;SDS011;10089;47.876;8.346;2023-06-22T08:28:03;10.65;;;5.38;;
9698;SDS011;10089;47.876;8.346;2023-06-22T08:30:30;12.80;;;5.43;;
9698;SDS011;10089;47.876;8.346;2023-06-22T08:32:55;12.35;;;5.07;;
9698;SDS011;10089;47.876;8.346;2023-06-22T08:35:24;10.05;;;5.28;;
9698;SDS011;10089;47.876;8.346;2023-06-22T08:37:50;10.13;;;5.50;;
9698;SDS011;10089;47.876;8.346;2023-06-22T08:40:19;7.38;;;4.75;;
9698;SDS011;10089;47.876;8.346;2023-06-22T08:42:45;10.57;;;4.85;;
9698;SDS011;10089;47.876;8.346;2023-06-22T08:45:12;11.02;;;4.70;;
9698;SDS011;10089;47.876;8.346;2023-06-22T08:47:38;12.07;;;5.22;;
9698;SDS011;10089;47.876;8.346;2023-06-22T08:50:06;13.15;;;4.50;;
9698;SDS011;10089;47.876;8.346;2023-06-22T08:52:33;12.40;;;5.18;;
9698;SDS011;10089;47.876;8.346;2023-06-22T08:55:00;10.68;;;4.80;;
9698;SDS011;10089;47.876;8.346;2023-06-22T08:57:26;12.05;;;5.38;;
9698;SDS011;10089;47.876;8.346;2023-06-22T08:59:55;7.72;;;4.75;;
9698;SDS011;10089;47.876;8.346;2023-06-22T09:02:23;9.85;;;5.50;;
9698;SDS011;10089;47.876;8.346;2023-06-22T09:04:49;12.55;;;5.25;;
9698;SDS011;10089;47.876;8.346;2023-06-22T09:07:20;9.75;;;5.32;;
9698;SDS011;10089;47.876;8.346;2023-06-22T09:09:50;9.10;;;4.90;;
9698;SDS011;10089;47.876;8.346;2023-06-22T09:12:16;9.20;;;4.88;;
9698;SDS011;10089;47.876;8.346;2023-06-22T09:14:45;11.60;;;5.13;;
9698;SDS011;10089;47.876;8.346;2023-06-22T09:17:14;9.45;;;5.00;;
9698;SDS011;10089;47.876;8.346;2023-06-22T09:19:39;13.98;;;4.70;;
9698;SDS011;10089;47.876;8.346;2023-06-22T09:22:05;9.57;;;4.82;;
9698;SDS011;10089;47.876;8.346;2023-06-22T09:24:46;9.93;;;4.82;;
9698;SDS011;10089;47.876;8.346;2023-06-22T09:27:12;11.75;;;4.97;;
9698;SDS011;10089;47.876;8.346;2023-06-22T09:29:37;10.48;;;5.20;;
9698;SDS011;10089;47.876;8.346;2023-06-22T09:32:03;11.55;;;5.05;;
9698;SDS011;10089;47.876;8.346;2023-06-22T09:34:29;9.88;;;5.32;;
9698;SDS011;10089;47.876;8.346;2023-06-22T09:36:56;14.35;;;5.30;;
9698;SDS011;10089;47.876;8.346;2023-06-22T09:39:22;10.85;;;4.75;;
9698;SDS011;10089;47.876;8.346;2023-06-22T09:41:48;14.20;;;6.35;;
9698;SDS011;10089;47.876;8.346;2023-06-22T09:44:16;8.32;;;5.03;;
9698;SDS011;10089;47.876;8.346;2023-06-22T09:46:42;12.43;;;5.18;;
9698;SDS011;10089;47.876;8.346;2023-06-22T09:49:07;11.10;;;5.78;;
9698;SDS011;10089;47.876;8.346;2023-06-22T09:51:33;13.30;;;5.80;;
9698;SDS011;10089;47.876;8.346;2023-06-22T09:53:58;10.55;;;5.47;;
9698;SDS011;10089;47.876;8.346;2023-06-22T09:56:24;11.80;;;5.47;;
9698;SDS011;10089;47.876;8.346;2023-06-22T09:58:52;10.32;;;5.50;;
9698;SDS011;10089;47.876;8.346;2023-06-22T10:01:18;7.50;;;5.50;;
9698;SDS011;10089;47.876;8.346;2023-06-22T10:03:43;9.93;;;6.47;;
9698;SDS011;10089;47.876;8.346;2023-06-22T10:06:09;12.63;;;5.85;;
9698;SDS011;10089;47.876;8.346;2023-06-22T10:08:35;10.00;;;5.90;;
9698;SDS011;10089;47.876;8.346;2023-06-22T10:11:01;10.15;;;6.22;;
9698;SDS011;10089;47.876;8.346;2023-06-22T10:13:27;9.35;;;6.25;;
9698;SDS011;10089;47.876;8.346;2023-06-22T10:15:52;9.35;;;6.00;;
9698;SDS011;10089;47.876;8.346;2023-06-22T10:18:18;13.55;;;6.63;;
9698;SDS011;10089;47.876;8.346;2023-06-22T10:20:50;11.73;;;5.88;;
9698;SDS011;10089;47.876;8.346;2023-06-22T10:23:16;13.40;;;6.65;;
9698;SDS011;10089;47.876;8.346;2023-06-22T10:25:43;11.45;;;6.20;;
9698;SDS011;10089;47.876;8.346;2023-06-22T10:28:08;14.10;;;6.50;;
9698;SDS011;10089;47.876;8.346;2023-06-22T10:30:34;12.38;;;6.60;;
9698;SDS011;10089;47.876;8.346;2023-06-22T10:33:00;12.50;;;6.35;;
9698;SDS011;10089;47.876;8.346;2023-06-22T10:35:28;15.05;;;7.30;;
9698;SDS011;10089;47.876;8.346;2023-06-22T10:37:54;15.15;;;7.30;;
9698;SDS011;10089;47.876;8.346;2023-06-22T10:40:21;10.55;;;6.80;;
9698;SDS011;10089;47.876;8.346;2023-06-22T10:42:46;11.38;;;6.53;;
9698;SDS011;10089;47.876;8.346;2023-06-22T10:45:12;10.73;;;6.65;;
9698;SDS011;10089;47.876;8.346;2023-06-22T10:47:38;12.75;;;6.50;;
9698;SDS011;10089;47.876;8.346;2023-06-22T10:50:11;11.23;;;7.13;;
9698;SDS011;10089;47.876;8.346;2023-06-22T10:52:40;12.60;;;6.75;;
9698;SDS011;10089;47.876;8.346;2023-06-22T10:55:12;10.88;;;7.00;;
9698;SDS011;10089;47.876;8.346;2023-06-22T10:57:38;13.30;;;6.90;;
9698;SDS011;10089;47.876;8.346;2023-06-22T11:00:07;14.85;;;6.85;;
9698;SDS011;10089;47.876;8.346;2023-06-22T11:02:34;9.18;;;6.80;;
9698;SDS011;10089;47.876;8.346;2023-06-22T11:04:59;14.90;;;7.38;;
9698;SDS011;10089;47.876;8.346;2023-06-22T11:07:28;14.73;;;7.68;;
9698;SDS011;10089;47.876;8.346;2023-06-22T11:10:15;13.88;;;6.95;;
9698;SDS011;10089;47.876;8.346;2023-06-22T11:12:40;11.55;;;6.55;;
9698;SDS011;10089;47.876;8.346;2023-06-22T11:15:07;12.38;;;7.50;;
9698;SDS011;10089;47.876;8.346;2023-06-22T11:17:34;15.73;;;6.70;;
9698;SDS011;10089;47.876;8.346;2023-06-22T11:20:00;11.57;;;7.30;;
9698;SDS011;10089;47.876;8.346;2023-06-22T11:22:36;18.17;;;7.55;;
9698;SDS011;10089;47.876;8.346;2023-06-22T11:25:02;13.60;;;7.07;;
9698;SDS011;10089;47.876;8.346;2023-06-22T11:27:29;12.82;;;7.47;;
9698;SDS011;10089;47.876;8.346;2023-06-22T11:29:55;12.18;;;6.75;;
9698;SDS011;10089;47.876;8.346;2023-06-22T11:32:20;11.90;;;6.35;;
9698;SDS011;10089;47.876;8.346;2023-06-22T11:34:46;10.98;;;6.80;;
9698;SDS011;10089;47.876;8.346;2023-06-22T11:37:12;14.20;;;6.68;;
9698;SDS011;10089;47.876;8.346;2023-06-22T11:39:45;12.90;;;6.18;;
9698;SDS011;10089;47.876;8.346;2023-06-22T11:42:16;12.07;;;5.70;;
9698;SDS011;10089;47.876;8.346;2023-06-22T11:44:45;8.85;;;5.43;;
9698;SDS011;10089;47.876;8.346;2023-06-22T11:47:11;13.75;;;6.05;;
9698;SDS011;10089;47.876;8.346;2023-06-22T11:49:37;10.77;;;4.82;;
9698;SDS011;10089;47.876;8.346;2023-06-22T11:52:06;14.15;;;5.93;;
9698;SDS011;10089;47.876;8.346;2023-06-22T11:54:31;8.65;;;4.60;;
9698;SDS011;10089;47.876;8.346;2023-06-22T11:56:57;11.90;;;5.32;;
9698;SDS011;10089;47.876;8.346;2023-06-22T11:59:23;9.10;;;4.32;;
9698;SDS011;10089;47.876;8.346;2023-06-22T12:01:48;11.48;;;4.18;;
9698;SDS011;10089;47.876;8.346;2023-06-22T12:04:19;12.63;;;3.60;;
9698;SDS011;10089;47.876;8.346;2023-06-22T12:06:50;10.25;;;3.30;;
9698;SDS011;10089;47.876;8.346;2023-06-22T12:09:16;10.93;;;3.35;;
9698;SDS011;10089;47.876;8.346;2023-06-22T12:11:43;10.15;;;3.58;;
9698;SDS011;10089;47.876;8.346;2023-06-22T12:14:08;11.55;;;3.28;;
9698;SDS011;10089;47.876;8.346;2023-06-22T12:16:34;8.07;;;3.28;;
9698;SDS011;10089;47.876;8.346;2023-06-22T12:19:00;10.00;;;3.28;;
9698;SDS011;10089;47.876;8.346;2023-06-22T12:21:25;14.43;;;3.88;;
9698;SDS011;10089;47.876;8.346;2023-06-22T12:23:52;18.17;;;3.63;;
9698;SDS011;10089;47.876;8.346;2023-06-22T12:26:18;7.75;;;3.08;;
9698;SDS011;10089;47.876;8.346;2023-06-22T12:28:43;12.35;;;3.60;;
9698;SDS011;10089;47.876;8.346;2023-06-22T12:31:12;10.32;;;3.42;;
9698;SDS011;10089;47.876;8.346;2023-06-22T12:33:39;10.95;;;3.42;;
9698;SDS011;10089;47.876;8.346;2023-06-22T12:36:05;9.88;;;2.40;;
9698;SDS011;10089;47.876;8.346;2023-06-22T12:38:33;9.77;;;2.80;;
9698;SDS011;10089;47.876;8.346;2023-06-22T12:40:59;8.52;;;2.45;;
9698;SDS011;10089;47.876;8.346;2023-06-22T12:43:25;10.07;;;3.05;;
9698;SDS011;10089;47.876;8.346;2023-06-22T12:45:50;12.15;;;3.00;;
9698;SDS011;10089;47.876;8.346;2023-06-22T12:48:16;8.73;;;3.92;;
9698;SDS011;10089;47.876;8.346;2023-06-22T12:50:42;6.55;;;2.70;;
9698;SDS011;10089;47.876;8.346;2023-06-22T12:53:07;9.88;;;3.30;;
9698;SDS011;10089;47.876;8.346;2023-06-22T12:55:33;12.23;;;3.20;;
9698;SDS011;10089;47.876;8.346;2023-06-22T12:57:59;10.23;;;2.95;;
9698;SDS011;10089;47.876;8.346;2023-06-22T13:00:24;15.20;;;3.58;;
9698;SDS011;10089;47.876;8.346;2023-06-22T13:02:50;9.77;;;3.13;;
9698;SDS011;10089;47.876;8.346;2023-06-22T13:05:16;7.85;;;3.30;;
9698;SDS011;10089;47.876;8.346;2023-06-22T13:07:42;12.48;;;3.00;;
9698;SDS011;10089;47.876;8.346;2023-06-22T13:10:10;9.70;;;2.72;;
9698;SDS011;10089;47.876;8.346;2023-06-22T13:12:36;6.18;;;3.33;;
9698;SDS011;10089;47.876;8.346;2023-06-22T13:15:01;7.43;;;2.65;;
9698;SDS011;10089;47.876;8.346;2023-06-22T13:17:28;10.05;;;2.83;;
9698;SDS011;10089;47.876;8.346;2023-06-22T13:19:54;9.55;;;3.00;;
9698;SDS011;10089;47.876;8.346;2023-06-22T13:22:30;9.82;;;2.80;;
9698;SDS011;10089;47.876;8.346;2023-06-22T13:24:56;14.90;;;2.90;;
9698;SDS011;10089;47.876;8.346;2023-06-22T13:27:25;6.57;;;2.78;;
9698;SDS011;10089;47.876;8.346;2023-06-22T13:29:51;7.25;;;2.75;;
9698;SDS011;10089;47.876;8.346;2023-06-22T13:32:17;7.18;;;3.20;;
9698;SDS011;10089;47.876;8.346;2023-06-22T13:34:43;9.43;;;2.67;;
9698;SDS011;10089;47.876;8.346;2023-06-22T13:37:09;8.70;;;2.78;;
9698;SDS011;10089;47.876;8.346;2023-06-22T13:39:34;11.93;;;3.30;;
9698;SDS011;10089;47.876;8.346;2023-06-22T13:42:00;7.63;;;3.38;;
9698;SDS011;10089;47.876;8.346;2023-06-22T13:44:26;8.40;;;2.90;;
9698;SDS011;10089;47.876;8.346;2023-06-22T13:46:54;12.27;;;3.85;;
9698;SDS011;10089;47.876;8.346;2023-06-22T13:49:20;8.15;;;3.03;;
9698;SDS011;10089;47.876;8.346;2023-06-22T13:51:46;15.52;;;3.55;;
9698;SDS011;10089;47.876;8.346;2023-06-22T13:54:16;10.90;;;3.35;;
9698;SDS011;10089;47.876;8.346;2023-06-22T13:56:41;4.22;;;2.45;;
9698;SDS011;10089;47.876;8.346;2023-06-22T13:59:07;9.38;;;3.20;;
9698;SDS011;10089;47.876;8.346;2023-06-22T14:01:35;7.35;;;2.92;;
9698;SDS011;10089;47.876;8.346;2023-06-22T14:04:01;8.90;;;3.10;;
9698;SDS011;10089;47.876;8.346;2023-06-22T14:06:27;11.98;;;3.25;;
9698;SDS011;10089;47.876;8.346;2023-06-22T14:08:54;7.65;;;2.97;;
9698;SDS011;10089;47.876;8.346;2023-06-22T14:11:19;7.40;;;3.53;;
9698;SDS011;10089;47.876;8.346;2023-06-22T14:13:45;14.15;;;3.30;;
9698;SDS011;10089;47.876;8.346;2023-06-22T14:16:10;10.13;;;3.55;;
9698;SDS011;10089;47.876;8.346;2023-06-22T14:18:36;13.88;;;3.72;;
9698;SDS011;10089;47.876;8.346;2023-06-22T14:21:02;8.05;;;3.15;;
9698;SDS011;10089;47.876;8.346;2023-06-22T14:23:27;4.28;;;2.95;;
9698;SDS011;10089;47.876;8.346;2023-06-22T14:25:53;12.88;;;3.30;;
9698;SDS011;10089;47.876;8.346;2023-06-22T14:28:19;10.02;;;3.85;;
9698;SDS011;10089;47.876;8.346;2023-06-22T14:30:45;9.00;;;3.17;;
9698;SDS011;10089;47.876;8.346;2023-06-22T14:33:11;8.18;;;3.45;;
9698;SDS011;10089;47.876;8.346;2023-06-22T14:35:37;11.57;;;3.67;;
9698;SDS011;10089;47.876;8.346;2023-06-22T14:38:02;12.25;;;3.08;;
9698;SDS011;10089;47.876;8.346;2023-06-22T14:40:28;8.38;;;3.40;;
9698;SDS011;10089;47.876;8.346;2023-06-22T14:42:54;4.78;;;3.28;;
9698;SDS011;10089;47.876;8.346;2023-06-22T14:45:21;10.60;;;3.65;;
9698;SDS011;10089;47.876;8.346;2023-06-22T14:47:48;10.05;;;3.60;;
9698;SDS011;10089;47.876;8.346;2023-06-22T14:50:14;12.43;;;3.78;;
9698;SDS011;10089;47.876;8.346;2023-06-22T14:52:39;15.10;;;3.97;;
9698;SDS011;10089;47.876;8.346;2023-06-22T14:55:05;5.65;;;3.30;;
9698;SDS011;10089;47.876;8.346;2023-06-22T14:57:31;6.90;;;3.25;;
9698;SDS011;10089;47.876;8.346;2023-06-22T14:59:57;7.50;;;3.08;;
9698;SDS011;10089;47.876;8.346;2023-06-22T15:02:22;9.07;;;3.60;;
9698;SDS011;10089;47.876;8.346;2023-06-22T15:04:48;7.18;;;3.03;;
9698;SDS011;10089;47.876;8.346;2023-06-22T15:07:14;7.57;;;3.30;;
9698;SDS011;10089;47.876;8.346;2023-06-22T15:09:39;7.75;;;2.72;;